< < Back
Terminal Aerodrome Forecast


Current Version              Previous Versions:   1  2  3  4  5  6  7  8  9  

Terminal Aerodrome Forecast

431
FTUS44 KOHX 312300
TAFCSV
TAF
KCSV 312320Z 0100/0124 30009KT P6SM SCT070
     FM010200 VRB03KT P6SM FEW050=



Latest METAR

747
SAUS70 KWBC 011800 RRL
MTRCSV
METAR KCSV 011753Z AUTO 05006KT 10SM CLR 19/M06 A3011 RMK AO2 SLP186
T01891056 10189 20056 $


USA.gov is the U.S. government's official web portal to all federal, state and local government web resources and services.